sensor_id;sensor_type;location;lat;lon;timestamp;temperature;humidity
35395;DHT22;21500;45.308;9.488;2022-07-18T00:01:01;26.90;99.90
35395;DHT22;21500;45.308;9.488;2022-07-18T00:03:27;26.80;99.90
35395;DHT22;21500;45.308;9.488;2022-07-18T00:05:59;26.80;99.90
35395;DHT22;21500;45.308;9.488;2022-07-18T00:08:26;26.90;99.90
35395;DHT22;21500;45.308;9.488;2022-07-18T00:10:52;26.80;99.90
35395;DHT22;21500;45.308;9.488;2022-07-18T00:13:23;26.80;99.90
35395;DHT22;21500;45.308;9.488;2022-07-18T00:15:54;26.70;99.90
35395;DHT22;21500;45.308;9.488;2022-07-18T00:18:22;26.70;99.90
35395;DHT22;21500;45.308;9.488;2022-07-18T00:20:50;26.70;99.90
35395;DHT22;21500;45.308;9.488;2022-07-18T00:23:18;26.70;99.90
35395;DHT22;21500;45.308;9.488;2022-07-18T00:25:46;26.70;99.90
35395;DHT22;21500;45.308;9.488;2022-07-18T00:28:12;26.60;99.90
35395;DHT22;21500;45.308;9.488;2022-07-18T00:30:39;26.60;99.90
35395;DHT22;21500;45.308;9.488;2022-07-18T00:33:07;26.70;99.90
35395;DHT22;21500;45.308;9.488;2022-07-18T00:35:34;26.60;99.90
35395;DHT22;21500;45.308;9.488;2022-07-18T00:38:00;26.60;99.90
35395;DHT22;21500;45.308;9.488;2022-07-18T00:40:30;26.60;99.90
35395;DHT22;21500;45.308;9.488;2022-07-18T00:42:57;26.50;99.90
35395;DHT22;21500;45.308;9.488;2022-07-18T00:45:24;26.50;99.90
35395;DHT22;21500;45.308;9.488;2022-07-18T00:47:51;26.50;99.90
35395;DHT22;21500;45.308;9.488;2022-07-18T00:50:18;26.40;99.90
35395;DHT22;21500;45.308;9.488;2022-07-18T00:52:45;26.40;99.90
35395;DHT22;21500;45.308;9.488;2022-07-18T00:55:13;26.30;99.90
35395;DHT22;21500;45.308;9.488;2022-07-18T00:57:40;26.40;99.90
35395;DHT22;21500;45.308;9.488;2022-07-18T01:00:12;26.30;99.90
35395;DHT22;21500;45.308;9.488;2022-07-18T01:02:58;26.30;99.90
35395;DHT22;21500;45.308;9.488;2022-07-18T01:05:25;26.30;99.90
35395;DHT22;21500;45.308;9.488;2022-07-18T01:07:51;26.30;99.90
35395;DHT22;21500;45.308;9.488;2022-07-18T01:10:18;26.20;99.90
35395;DHT22;21500;45.308;9.488;2022-07-18T01:12:45;26.20;99.90
35395;DHT22;21500;45.308;9.488;2022-07-18T01:15:15;26.20;99.90
35395;DHT22;21500;45.308;9.488;2022-07-18T01:17:42;26.30;99.90
35395;DHT22;21500;45.308;9.488;2022-07-18T01:20:09;26.20;99.90
35395;DHT22;21500;45.308;9.488;2022-07-18T01:22:38;26.10;99.90
35395;DHT22;21500;45.308;9.488;2022-07-18T01:25:09;26.10;99.90
35395;DHT22;21500;45.308;9.488;2022-07-18T01:27:35;26.00;99.90
35395;DHT22;21500;45.308;9.488;2022-07-18T01:30:04;26.00;99.90
35395;DHT22;21500;45.308;9.488;2022-07-18T01:32:31;26.00;99.90
35395;DHT22;21500;45.308;9.488;2022-07-18T01:34:57;26.00;99.90
35395;DHT22;21500;45.308;9.488;2022-07-18T01:37:23;25.90;99.90
35395;DHT22;21500;45.308;9.488;2022-07-18T01:39:49;26.00;99.90
35395;DHT22;21500;45.308;9.488;2022-07-18T01:42:15;26.00;99.90
35395;DHT22;21500;45.308;9.488;2022-07-18T01:44:42;26.10;99.90
35395;DHT22;21500;45.308;9.488;2022-07-18T01:47:11;26.00;99.90
35395;DHT22;21500;45.308;9.488;2022-07-18T01:49:38;26.00;99.90
35395;DHT22;21500;45.308;9.488;2022-07-18T01:52:04;26.00;99.90
35395;DHT22;21500;45.308;9.488;2022-07-18T01:54:32;25.90;99.90
35395;DHT22;21500;45.308;9.488;2022-07-18T01:57:00;25.80;99.90
35395;DHT22;21500;45.308;9.488;2022-07-18T01:59:26;25.90;99.90
35395;DHT22;21500;45.308;9.488;2022-07-18T02:01:52;25.90;99.90
35395;DHT22;21500;45.308;9.488;2022-07-18T02:04:18;25.80;99.90
35395;DHT22;21500;45.308;9.488;2022-07-18T02:06:44;25.80;99.90
35395;DHT22;21500;45.308;9.488;2022-07-18T02:09:10;26.00;99.90
35395;DHT22;21500;45.308;9.488;2022-07-18T02:11:37;25.80;99.90
35395;DHT22;21500;45.308;9.488;2022-07-18T02:14:04;25.80;99.90
35395;DHT22;21500;45.308;9.488;2022-07-18T02:16:31;25.80;99.90
35395;DHT22;21500;45.308;9.488;2022-07-18T02:18:57;25.70;99.90
35395;DHT22;21500;45.308;9.488;2022-07-18T02:21:23;25.70;99.90
35395;DHT22;21500;45.308;9.488;2022-07-18T02:23:49;25.60;99.90
35395;DHT22;21500;45.308;9.488;2022-07-18T02:26:17;25.60;99.90
35395;DHT22;21500;45.308;9.488;2022-07-18T02:28:43;25.60;99.90
35395;DHT22;21500;45.308;9.488;2022-07-18T02:31:16;25.60;99.90
35395;DHT22;21500;45.308;9.488;2022-07-18T02:33:42;25.50;99.90
35395;DHT22;21500;45.308;9.488;2022-07-18T02:36:11;25.50;99.90
35395;DHT22;21500;45.308;9.488;2022-07-18T02:38:37;25.50;99.90
35395;DHT22;21500;45.308;9.488;2022-07-18T02:41:03;25.50;99.90
35395;DHT22;21500;45.308;9.488;2022-07-18T02:43:29;25.50;99.90
35395;DHT22;21500;45.308;9.488;2022-07-18T02:45:55;25.70;99.90
35395;DHT22;21500;45.308;9.488;2022-07-18T02:48:22;25.80;99.90
35395;DHT22;21500;45.308;9.488;2022-07-18T02:50:48;25.70;99.90
35395;DHT22;21500;45.308;9.488;2022-07-18T02:53:14;25.60;99.90
35395;DHT22;21500;45.308;9.488;2022-07-18T02:55:40;25.60;99.90
35395;DHT22;21500;45.308;9.488;2022-07-18T02:58:08;25.60;99.90
35395;DHT22;21500;45.308;9.488;2022-07-18T03:00:36;25.60;99.90
35395;DHT22;21500;45.308;9.488;2022-07-18T03:03:05;25.70;99.90
35395;DHT22;21500;45.308;9.488;2022-07-18T03:05:31;25.70;99.90
35395;DHT22;21500;45.308;9.488;2022-07-18T03:07:57;25.60;99.90
35395;DHT22;21500;45.308;9.488;2022-07-18T03:10:23;25.70;99.90
35395;DHT22;21500;45.308;9.488;2022-07-18T03:12:52;25.60;99.90
35395;DHT22;21500;45.308;9.488;2022-07-18T03:15:18;25.60;99.90
35395;DHT22;21500;45.308;9.488;2022-07-18T03:17:47;25.70;99.90
35395;DHT22;21500;45.308;9.488;2022-07-18T03:20:13;25.60;99.90
35395;DHT22;21500;45.308;9.488;2022-07-18T03:22:40;25.60;99.90
35395;DHT22;21500;45.308;9.488;2022-07-18T03:25:06;25.70;99.90
35395;DHT22;21500;45.308;9.488;2022-07-18T03:27:32;25.60;99.90
35395;DHT22;21500;45.308;9.488;2022-07-18T03:29:58;25.60;99.90
35395;DHT22;21500;45.308;9.488;2022-07-18T03:32:24;25.60;99.90
35395;DHT22;21500;45.308;9.488;2022-07-18T03:34:51;25.60;99.90
35395;DHT22;21500;45.308;9.488;2022-07-18T03:37:17;25.60;99.90
35395;DHT22;21500;45.308;9.488;2022-07-18T03:39:46;25.60;99.90
35395;DHT22;21500;45.308;9.488;2022-07-18T03:42:31;25.60;99.90
35395;DHT22;21500;45.308;9.488;2022-07-18T03:44:57;25.50;99.90
35395;DHT22;21500;45.308;9.488;2022-07-18T03:47:23;25.40;99.90
35395;DHT22;21500;45.308;9.488;2022-07-18T03:49:49;25.40;99.90
35395;DHT22;21500;45.308;9.488;2022-07-18T03:52:15;25.40;99.90
35395;DHT22;21500;45.308;9.488;2022-07-18T03:54:41;25.30;99.90
35395;DHT22;21500;45.308;9.488;2022-07-18T03:57:06;25.30;99.90
35395;DHT22;21500;45.308;9.488;2022-07-18T03:59:32;25.30;99.90
35395;DHT22;21500;45.308;9.488;2022-07-18T04:01:59;25.20;99.90
35395;DHT22;21500;45.308;9.488;2022-07-18T04:04:24;25.20;99.90
35395;DHT22;21500;45.308;9.488;2022-07-18T04:06:50;25.20;99.90
35395;DHT22;21500;45.308;9.488;2022-07-18T04:09:16;25.20;99.90
35395;DHT22;21500;45.308;9.488;2022-07-18T04:11:42;25.20;99.90
35395;DHT22;21500;45.308;9.488;2022-07-18T04:14:08;25.20;99.90
35395;DHT22;21500;45.308;9.488;2022-07-18T04:16:34;25.40;99.90
35395;DHT22;21500;45.308;9.488;2022-07-18T04:19:00;25.20;99.90
35395;DHT22;21500;45.308;9.488;2022-07-18T04:21:26;25.20;99.90
35395;DHT22;21500;45.308;9.488;2022-07-18T04:23:55;25.30;99.90
35395;DHT22;21500;45.308;9.488;2022-07-18T04:26:21;25.40;99.90
35395;DHT22;21500;45.308;9.488;2022-07-18T04:28:47;25.50;99.90
35395;DHT22;21500;45.308;9.488;2022-07-18T04:31:13;25.50;99.90
35395;DHT22;21500;45.308;9.488;2022-07-18T04:33:39;25.40;99.90
35395;DHT22;21500;45.308;9.488;2022-07-18T04:36:05;25.30;99.90
35395;DHT22;21500;45.308;9.488;2022-07-18T04:38:31;25.30;99.90
35395;DHT22;21500;45.308;9.488;2022-07-18T04:40:59;25.30;99.90
35395;DHT22;21500;45.308;9.488;2022-07-18T04:43:25;25.30;99.90
35395;DHT22;21500;45.308;9.488;2022-07-18T04:45:51;25.40;99.90
35395;DHT22;21500;45.308;9.488;2022-07-18T04:48:17;25.50;99.90
35395;DHT22;21500;45.308;9.488;2022-07-18T04:50:43;25.60;99.90
35395;DHT22;21500;45.308;9.488;2022-07-18T04:53:08;25.60;99.90
35395;DHT22;21500;45.308;9.488;2022-07-18T04:55:34;25.70;99.90
35395;DHT22;21500;45.308;9.488;2022-07-18T04:58:00;25.70;99.90
35395;DHT22;21500;45.308;9.488;2022-07-18T05:00:27;25.70;99.90
35395;DHT22;21500;45.308;9.488;2022-07-18T05:02:54;25.70;99.90
35395;DHT22;21500;45.308;9.488;2022-07-18T05:05:21;25.70;99.90
35395;DHT22;21500;45.308;9.488;2022-07-18T05:07:50;25.60;99.90
35395;DHT22;21500;45.308;9.488;2022-07-18T05:10:29;25.70;99.90
35395;DHT22;21500;45.308;9.488;2022-07-18T05:12:55;25.70;99.90
35395;DHT22;21500;45.308;9.488;2022-07-18T05:15:23;25.60;99.90
35395;DHT22;21500;45.308;9.488;2022-07-18T05:17:51;25.60;99.90
35395;DHT22;21500;45.308;9.488;2022-07-18T05:25:39;25.90;99.90
35395;DHT22;21500;45.308;9.488;2022-07-18T05:28:13;25.90;99.90
35395;DHT22;21500;45.308;9.488;2022-07-18T05:31:07;25.90;99.90
35395;DHT22;21500;45.308;9.488;2022-07-18T05:33:46;25.90;99.90
35395;DHT22;21500;45.308;9.488;2022-07-18T05:36:19;25.90;99.90
35395;DHT22;21500;45.308;9.488;2022-07-18T05:38:50;26.00;99.90
35395;DHT22;21500;45.308;9.488;2022-07-18T05:41:20;26.00;99.90
35395;DHT22;21500;45.308;9.488;2022-07-18T05:43:47;26.10;99.90
35395;DHT22;21500;45.308;9.488;2022-07-18T05:46:17;26.10;99.90
35395;DHT22;21500;45.308;9.488;2022-07-18T05:48:43;26.10;99.90
35395;DHT22;21500;45.308;9.488;2022-07-18T05:51:09;26.10;99.90
35395;DHT22;21500;45.308;9.488;2022-07-18T05:53:36;26.10;99.90
35395;DHT22;21500;45.308;9.488;2022-07-18T05:56:02;26.10;99.90
35395;DHT22;21500;45.308;9.488;2022-07-18T05:58:28;26.20;99.90
35395;DHT22;21500;45.308;9.488;2022-07-18T06:00:54;26.30;99.90
35395;DHT22;21500;45.308;9.488;2022-07-18T06:03:20;26.40;99.90
35395;DHT22;21500;45.308;9.488;2022-07-18T06:05:46;26.40;99.90
35395;DHT22;21500;45.308;9.488;2022-07-18T06:08:17;26.50;99.90
35395;DHT22;21500;45.308;9.488;2022-07-18T06:10:45;26.40;99.90
35395;DHT22;21500;45.308;9.488;2022-07-18T06:13:12;26.60;99.90
35395;DHT22;21500;45.308;9.488;2022-07-18T06:15:44;26.70;99.90
35395;DHT22;21500;45.308;9.488;2022-07-18T06:18:11;26.70;99.90
35395;DHT22;21500;45.308;9.488;2022-07-18T06:20:37;26.70;99.90
35395;DHT22;21500;45.308;9.488;2022-07-18T06:23:03;26.80;99.90
35395;DHT22;21500;45.308;9.488;2022-07-18T06:25:30;26.80;99.90
35395;DHT22;21500;45.308;9.488;2022-07-18T06:28:04;26.90;99.90
35395;DHT22;21500;45.308;9.488;2022-07-18T06:30:38;26.80;99.90
35395;DHT22;21500;45.308;9.488;2022-07-18T06:33:10;26.90;99.90
35395;DHT22;21500;45.308;9.488;2022-07-18T06:35:38;27.10;99.90
35395;DHT22;21500;45.308;9.488;2022-07-18T06:38:04;27.10;99.90
35395;DHT22;21500;45.308;9.488;2022-07-18T06:40:31;27.30;99.90
35395;DHT22;21500;45.308;9.488;2022-07-18T06:42:57;27.30;99.90
35395;DHT22;21500;45.308;9.488;2022-07-18T06:45:24;27.40;99.90
35395;DHT22;21500;45.308;9.488;2022-07-18T06:47:50;27.40;99.90
35395;DHT22;21500;45.308;9.488;2022-07-18T06:50:16;27.40;99.90
35395;DHT22;21500;45.308;9.488;2022-07-18T06:52:43;27.50;99.90
35395;DHT22;21500;45.308;9.488;2022-07-18T06:55:12;27.50;99.90
35395;DHT22;21500;45.308;9.488;2022-07-18T06:57:39;27.70;99.90
35395;DHT22;21500;45.308;9.488;2022-07-18T07:00:06;27.80;99.90
35395;DHT22;21500;45.308;9.488;2022-07-18T07:02:46;27.80;99.90
35395;DHT22;21500;45.308;9.488;2022-07-18T07:05:13;27.80;99.90
35395;DHT22;21500;45.308;9.488;2022-07-18T08:58:24;30.80;96.80
35395;DHT22;21500;45.308;9.488;2022-07-18T09:00:50;30.90;96.70
35395;DHT22;21500;45.308;9.488;2022-07-18T09:03:17;30.90;96.50
35395;DHT22;21500;45.308;9.488;2022-07-18T09:11:22;30.90;95.90
35395;DHT22;21500;45.308;9.488;2022-07-18T09:13:48;30.90;95.90
35395;DHT22;21500;45.308;9.488;2022-07-18T09:16:14;30.70;95.90
35395;DHT22;21500;45.308;9.488;2022-07-18T09:18:46;30.60;96.20
35395;DHT22;21500;45.308;9.488;2022-07-18T09:21:22;30.60;96.20
35395;DHT22;21500;45.308;9.488;2022-07-18T09:23:50;30.70;96.00
35395;DHT22;21500;45.308;9.488;2022-07-18T09:29:01;30.60;96.00
35395;DHT22;21500;45.308;9.488;2022-07-18T09:31:27;30.70;96.20
35395;DHT22;21500;45.308;9.488;2022-07-18T09:33:58;30.80;96.10
35395;DHT22;21500;45.308;9.488;2022-07-18T09:36:25;30.70;95.10
35395;DHT22;21500;45.308;9.488;2022-07-18T09:38:52;30.80;95.30
35395;DHT22;21500;45.308;9.488;2022-07-18T09:41:29;31.00;95.40
35395;DHT22;21500;45.308;9.488;2022-07-18T09:43:58;30.90;95.70
35395;DHT22;21500;45.308;9.488;2022-07-18T09:46:30;30.80;95.80
35395;DHT22;21500;45.308;9.488;2022-07-18T10:17:14;31.40;94.70
35395;DHT22;21500;45.308;9.488;2022-07-18T10:19:40;31.80;94.80
35395;DHT22;21500;45.308;9.488;2022-07-18T10:22:07;31.70;95.00
35395;DHT22;21500;45.308;9.488;2022-07-18T10:24:33;31.40;94.70
35395;DHT22;21500;45.308;9.488;2022-07-18T10:27:18;31.40;94.50
35395;DHT22;21500;45.308;9.488;2022-07-18T10:30:06;31.40;95.00
35395;DHT22;21500;45.308;9.488;2022-07-18T10:32:33;31.60;94.80
35395;DHT22;21500;45.308;9.488;2022-07-18T18:04:17;32.10;94.70
35395;DHT22;21500;45.308;9.488;2022-07-18T18:06:46;32.10;94.80
35395;DHT22;21500;45.308;9.488;2022-07-18T18:09:19;32.00;94.80
35395;DHT22;21500;45.308;9.488;2022-07-18T18:11:45;31.90;95.10
35395;DHT22;21500;45.308;9.488;2022-07-18T18:14:12;31.80;95.30
35395;DHT22;21500;45.308;9.488;2022-07-18T18:16:40;31.80;95.20
35395;DHT22;21500;45.308;9.488;2022-07-18T18:19:08;31.80;95.20
35395;DHT22;21500;45.308;9.488;2022-07-18T18:21:34;31.70;95.30
35395;DHT22;21500;45.308;9.488;2022-07-18T18:23:59;31.70;95.20
35395;DHT22;21500;45.308;9.488;2022-07-18T18:26:25;31.70;95.30
35395;DHT22;21500;45.308;9.488;2022-07-18T18:28:51;31.60;95.30
35395;DHT22;21500;45.308;9.488;2022-07-18T18:31:17;31.60;95.40
35395;DHT22;21500;45.308;9.488;2022-07-18T18:33:43;31.50;95.50
35395;DHT22;21500;45.308;9.488;2022-07-18T18:36:08;31.60;95.50
35395;DHT22;21500;45.308;9.488;2022-07-18T18:38:35;31.50;95.50
35395;DHT22;21500;45.308;9.488;2022-07-18T18:41:01;31.40;95.50
35395;DHT22;21500;45.308;9.488;2022-07-18T18:43:26;31.40;95.60
35395;DHT22;21500;45.308;9.488;2022-07-18T18:45:53;31.30;95.60
35395;DHT22;21500;45.308;9.488;2022-07-18T18:48:20;31.20;95.70
35395;DHT22;21500;45.308;9.488;2022-07-18T18:50:46;31.20;95.80
35395;DHT22;21500;45.308;9.488;2022-07-18T18:53:12;31.10;95.80
35395;DHT22;21500;45.308;9.488;2022-07-18T18:55:38;31.10;95.90
35395;DHT22;21500;45.308;9.488;2022-07-18T18:58:06;31.10;95.90
35395;DHT22;21500;45.308;9.488;2022-07-18T19:00:36;31.00;95.90
35395;DHT22;21500;45.308;9.488;2022-07-18T19:03:03;30.90;96.00
35395;DHT22;21500;45.308;9.488;2022-07-18T19:05:30;30.90;96.20
35395;DHT22;21500;45.308;9.488;2022-07-18T19:07:56;30.80;96.20
35395;DHT22;21500;45.308;9.488;2022-07-18T19:10:22;30.80;96.20
35395;DHT22;21500;45.308;9.488;2022-07-18T19:12:48;30.80;96.30
35395;DHT22;21500;45.308;9.488;2022-07-18T19:28:49;30.50;97.00
35395;DHT22;21500;45.308;9.488;2022-07-18T19:33:59;30.50;97.10
35395;DHT22;21500;45.308;9.488;2022-07-18T19:39:08;30.40;97.30
35395;DHT22;21500;45.308;9.488;2022-07-18T19:44:09;30.40;97.50
35395;DHT22;21500;45.308;9.488;2022-07-18T19:49:17;30.20;97.70
35395;DHT22;21500;45.308;9.488;2022-07-18T19:51:43;30.20;97.80
35395;DHT22;21500;45.308;9.488;2022-07-18T19:54:09;30.20;97.90
35395;DHT22;21500;45.308;9.488;2022-07-18T19:56:35;30.20;98.00
35395;DHT22;21500;45.308;9.488;2022-07-18T19:59:11;30.10;98.10
35395;DHT22;21500;45.308;9.488;2022-07-18T20:01:37;30.10;98.20
35395;DHT22;21500;45.308;9.488;2022-07-18T20:04:03;30.00;98.30
35395;DHT22;21500;45.308;9.488;2022-07-18T20:06:29;30.00;98.40
35395;DHT22;21500;45.308;9.488;2022-07-18T20:08:55;29.90;98.50
35395;DHT22;21500;45.308;9.488;2022-07-18T20:11:20;29.90;98.70
35395;DHT22;21500;45.308;9.488;2022-07-18T20:13:46;29.90;98.80
35395;DHT22;21500;45.308;9.488;2022-07-18T20:16:12;29.80;99.00
35395;DHT22;21500;45.308;9.488;2022-07-18T20:18:41;29.80;99.20
35395;DHT22;21500;45.308;9.488;2022-07-18T20:21:07;29.70;99.30
35395;DHT22;21500;45.308;9.488;2022-07-18T20:23:32;29.60;99.50
35395;DHT22;21500;45.308;9.488;2022-07-18T20:25:58;29.60;99.60
35395;DHT22;21500;45.308;9.488;2022-07-18T20:28:24;29.60;99.80
35395;DHT22;21500;45.308;9.488;2022-07-18T20:30:50;29.50;99.90
35395;DHT22;21500;45.308;9.488;2022-07-18T20:33:16;29.50;99.90
35395;DHT22;21500;45.308;9.488;2022-07-18T20:35:43;29.40;99.90
35395;DHT22;21500;45.308;9.488;2022-07-18T20:38:09;29.40;99.90
35395;DHT22;21500;45.308;9.488;2022-07-18T20:40:35;29.30;99.90
35395;DHT22;21500;45.308;9.488;2022-07-18T20:43:01;29.30;99.90
35395;DHT22;21500;45.308;9.488;2022-07-18T20:45:26;29.20;99.90
35395;DHT22;21500;45.308;9.488;2022-07-18T20:47:56;29.20;99.90
35395;DHT22;21500;45.308;9.488;2022-07-18T20:50:22;29.10;99.90
35395;DHT22;21500;45.308;9.488;2022-07-18T20:52:49;29.00;99.90
35395;DHT22;21500;45.308;9.488;2022-07-18T20:55:15;28.90;99.90
35395;DHT22;21500;45.308;9.488;2022-07-18T20:57:41;28.90;99.90
35395;DHT22;21500;45.308;9.488;2022-07-18T21:00:08;28.90;99.90
35395;DHT22;21500;45.308;9.488;2022-07-18T21:02:34;28.90;99.90
35395;DHT22;21500;45.308;9.488;2022-07-18T21:04:59;28.90;99.90
35395;DHT22;21500;45.308;9.488;2022-07-18T21:07:25;28.80;99.90
35395;DHT22;21500;45.308;9.488;2022-07-18T21:09:51;28.80;99.90
35395;DHT22;21500;45.308;9.488;2022-07-18T21:12:17;28.70;99.90
35395;DHT22;21500;45.308;9.488;2022-07-18T21:14:42;28.70;99.90
35395;DHT22;21500;45.308;9.488;2022-07-18T21:17:26;28.70;99.90
35395;DHT22;21500;45.308;9.488;2022-07-18T21:19:52;28.60;99.90
35395;DHT22;21500;45.308;9.488;2022-07-18T21:22:18;28.60;99.90
35395;DHT22;21500;45.308;9.488;2022-07-18T21:24:44;28.60;99.90
35395;DHT22;21500;45.308;9.488;2022-07-18T21:27:15;28.60;99.90
35395;DHT22;21500;45.308;9.488;2022-07-18T21:29:42;28.50;99.90
35395;DHT22;21500;45.308;9.488;2022-07-18T21:32:08;28.40;99.90
35395;DHT22;21500;45.308;9.488;2022-07-18T21:34:33;28.30;99.90
35395;DHT22;21500;45.308;9.488;2022-07-18T21:36:59;28.30;99.90
35395;DHT22;21500;45.308;9.488;2022-07-18T21:39:25;28.30;99.90
35395;DHT22;21500;45.308;9.488;2022-07-18T21:41:51;28.30;99.90
35395;DHT22;21500;45.308;9.488;2022-07-18T21:44:17;28.20;99.90
35395;DHT22;21500;45.308;9.488;2022-07-18T21:46:42;28.20;99.90
35395;DHT22;21500;45.308;9.488;2022-07-18T21:49:15;28.10;99.90
35395;DHT22;21500;45.308;9.488;2022-07-18T21:51:40;28.10;99.90
35395;DHT22;21500;45.308;9.488;2022-07-18T21:54:06;28.10;99.90
35395;DHT22;21500;45.308;9.488;2022-07-18T21:56:32;28.00;99.90
35395;DHT22;21500;45.308;9.488;2022-07-18T21:58:58;28.00;99.90
35395;DHT22;21500;45.308;9.488;2022-07-18T22:01:24;28.00;99.90
35395;DHT22;21500;45.308;9.488;2022-07-18T22:03:51;27.90;99.90
35395;DHT22;21500;45.308;9.488;2022-07-18T22:06:16;27.80;99.90
35395;DHT22;21500;45.308;9.488;2022-07-18T22:08:42;27.80;99.90
35395;DHT22;21500;45.308;9.488;2022-07-18T22:11:09;27.80;99.90
35395;DHT22;21500;45.308;9.488;2022-07-18T22:13:35;27.70;99.90
35395;DHT22;21500;45.308;9.488;2022-07-18T22:16:01;27.70;99.90
35395;DHT22;21500;45.308;9.488;2022-07-18T22:18:27;27.70;99.90
35395;DHT22;21500;45.308;9.488;2022-07-18T22:20:53;27.70;99.90
35395;DHT22;21500;45.308;9.488;2022-07-18T22:23:19;27.60;99.90
35395;DHT22;21500;45.308;9.488;2022-07-18T22:25:45;27.60;99.90
35395;DHT22;21500;45.308;9.488;2022-07-18T22:28:10;27.60;99.90
35395;DHT22;21500;45.308;9.488;2022-07-18T22:30:36;27.50;99.90
35395;DHT22;21500;45.308;9.488;2022-07-18T22:33:02;27.60;99.90
35395;DHT22;21500;45.308;9.488;2022-07-18T22:35:28;27.50;99.90
35395;DHT22;21500;45.308;9.488;2022-07-18T22:37:54;27.50;99.90
35395;DHT22;21500;45.308;9.488;2022-07-18T22:40:20;27.40;99.90
35395;DHT22;21500;45.308;9.488;2022-07-18T22:42:46;27.40;99.90
35395;DHT22;21500;45.308;9.488;2022-07-18T22:45:12;27.40;99.90
35395;DHT22;21500;45.308;9.488;2022-07-18T22:47:38;27.40;99.90
35395;DHT22;21500;45.308;9.488;2022-07-18T22:50:04;27.30;99.90
35395;DHT22;21500;45.308;9.488;2022-07-18T22:52:30;27.30;99.90
35395;DHT22;21500;45.308;9.488;2022-07-18T22:54:56;27.20;99.90
35395;DHT22;21500;45.308;9.488;2022-07-18T22:57:22;27.20;99.90
35395;DHT22;21500;45.308;9.488;2022-07-18T22:59:49;27.10;99.90
35395;DHT22;21500;45.308;9.488;2022-07-18T23:02:15;27.10;99.90
35395;DHT22;21500;45.308;9.488;2022-07-18T23:04:43;27.10;99.90
35395;DHT22;21500;45.308;9.488;2022-07-18T23:07:09;27.00;99.90
35395;DHT22;21500;45.308;9.488;2022-07-18T23:09:35;27.00;99.90
35395;DHT22;21500;45.308;9.488;2022-07-18T23:12:00;27.00;99.90
35395;DHT22;21500;45.308;9.488;2022-07-18T23:14:26;27.00;99.90
35395;DHT22;21500;45.308;9.488;2022-07-18T23:16:52;26.90;99.90
35395;DHT22;21500;45.308;9.488;2022-07-18T23:19:18;26.90;99.90
35395;DHT22;21500;45.308;9.488;2022-07-18T23:21:44;26.90;99.90
35395;DHT22;21500;45.308;9.488;2022-07-18T23:24:10;26.90;99.90
35395;DHT22;21500;45.308;9.488;2022-07-18T23:26:36;26.80;99.90
35395;DHT22;21500;45.308;9.488;2022-07-18T23:29:05;26.80;99.90
35395;DHT22;21500;45.308;9.488;2022-07-18T23:31:31;26.80;99.90
35395;DHT22;21500;45.308;9.488;2022-07-18T23:33:56;26.80;99.90
35395;DHT22;21500;45.308;9.488;2022-07-18T23:36:22;26.80;99.90
35395;DHT22;21500;45.308;9.488;2022-07-18T23:38:48;26.70;99.90
35395;DHT22;21500;45.308;9.488;2022-07-18T23:41:14;26.70;99.90
35395;DHT22;21500;45.308;9.488;2022-07-18T23:43:40;26.70;99.90
35395;DHT22;21500;45.308;9.488;2022-07-18T23:46:06;26.70;99.90
35395;DHT22;21500;45.308;9.488;2022-07-18T23:48:32;26.70;99.90
35395;DHT22;21500;45.308;9.488;2022-07-18T23:50:58;26.70;99.90
35395;DHT22;21500;45.308;9.488;2022-07-18T23:53:29;26.60;99.90
35395;DHT22;21500;45.308;9.488;2022-07-18T23:56:00;26.60;99.90
35395;DHT22;21500;45.308;9.488;2022-07-18T23:58:26;26.60;99.90
